Latest Weather Observations for Low Isles

IDQ60801

Issued at 7:32 pm EST Saturday 16 October 2021 (issued every 10 minutes, with the page automatically refreshed every 10 minutes)

About weather observations | Map of weather stations | Latest weather observations for QLD | Other Formats
Station Details ID: 031037 Name: LOW ISLES LIGHTHOUSE Lat: -16.38 Lon: 145.56 Height: 2.9 m
Data from the previous 72 hours. | See also: Recent months at Low Isles
Date/Time
EST
Temp
°C
App
Temp
°C
Dew
Point
°C
Rel
Hum
%
Delta-T
°C
Wind Press
QNH
hPa
Press
MSL
hPa
Rain since
9am
mm
Dir  Spd
km/h
Gust
km/h
Spd
kts
Gust
kts
16/07:30pm 27.1 28.8 22.3 75 3.2 ESE 17 22 9 12 1010.4 1010.3 0.0
16/07:00pm 27.2 29.4 21.9 73 3.6 ESE 13 15 7 8 1010.7 1010.6 0.0
16/06:30pm 27.5 30.3 21.5 70 4.0 ESE 9 11 5 6 1010.8 1010.7 0.0
16/06:00pm 27.7 30.0 21.3 68 4.3 E 11 15 6 8 1010.3 1010.2 0.0
16/05:30pm 28.1 29.3 19.9 61 5.4 E 13 15 7 8 1009.8 1009.7 0.0
16/05:00pm 28.6 30.0 20.3 60 5.5 ESE 13 17 7 9 1009.4 1009.3 0.0
16/04:30pm 29.2 29.5 19.5 56 6.3 ESE 17 20 9 11 1009.1 1009.0 0.0
16/04:00pm 30.8 32.4 20.7 55 6.7 ENE 13 17 7 9 1008.9 1008.8 0.0
16/03:30pm 31.4 34.2 21.6 56 6.6 NNE 9 13 5 7 1008.6 1008.5 0.0
16/03:00pm 32.4 35.9 22.8 57 6.6 NNE 9 11 5 6 1009.1 1009.0 0.0
16/02:30pm 32.3 35.7 22.7 57 6.6 NNE 9 13 5 7 1009.4 1009.3 0.0
16/02:00pm 33.1 36.2 22.8 54 7.1 NNE 11 15 6 8 1009.8 1009.7 0.0
16/01:30pm 32.2 35.1 23.2 59 6.2 NE 13 15 7 8 1010.2 1010.1 0.0
16/01:00pm 31.9 34.3 22.3 56 6.5 NE 13 17 7 9 1010.6 1010.5 0.0
16/12:30pm 31.9 34.3 22.3 56 6.5 NE 13 17 7 9 1011.1 1011.0 0.0
16/12:00pm 31.7 34.3 22.7 59 6.2 E 13 17 7 9 1011.6 1011.5 0.0
16/11:30am 31.2 33.3 22.5 60 5.9 E 15 19 8 10 1011.9 1011.8 0.0
16/11:00am 30.9 32.7 22.5 61 5.7 ESE 17 20 9 11 1012.2 1012.1 0.0
16/10:30am 29.7 31.3 22.2 64 5.1 SE 17 20 9 11 1012.5 1012.4 0.0
16/10:00am 29.0 30.2 21.5 64 5.0 SE 17 19 9 10 1012.6 1012.5 0.0
16/09:30am 28.2 29.8 22.2 70 4.0 SE 17 20 9 11 1012.8 1012.7 0.0
16/09:00am 27.7 31.0 22.6 74 3.5 S 9 11 5 6 1012.8 1012.7 0.4
16/08:30am 26.9 30.7 22.7 78 2.8 S 7 9 4 5 1012.6 1012.5 0.4
16/08:00am 25.7 28.6 21.8 79 2.6 SSE 9 11 5 6 1012.4 1012.3 0.4
16/07:30am 25.5 28.0 21.8 80 2.5 SE 11 13 6 7 1012.0 1011.9 0.4
16/07:00am 25.4 27.6 21.9 81 2.3 SW 13 15 7 8 1011.5 1011.4 0.4
16/06:30am 25.3 28.3 22.0 82 2.2 SW 9 9 5 5 1010.9 1010.8 0.4
16/06:00am 25.0 28.2 21.7 82 2.2 SW 7 9 4 5 1010.7 1010.6 0.4
16/05:30am 24.9 28.3 22.0 84 1.9 SW 7 9 4 5 1010.4 1010.3 0.4
16/05:00am 24.9 28.1 22.4 86 1.7 WSW 9 11 5 6 1010.0 1009.9 0.4
16/04:30am 25.1 27.8 22.2 84 1.9 W 11 13 6 7 1009.4 1009.3 0.4
16/04:00am 25.4 26.7 22.3 83 2.1 W 19 20 10 11 1009.2 1009.1 0.4
16/03:30am 25.5 27.3 23.2 87 1.6 W 19 22 10 12 1009.0 1008.9 0.4
16/03:00am 25.3 27.2 22.8 86 1.7 W 17 20 9 11 1009.4 1009.3 0.4
16/02:30am 25.5 27.1 23.2 87 1.6 WNW 20 22 11 12 1009.5 1009.4 0.4
16/02:00am 25.6 26.0 23.1 86 1.7 WNW 26 30 14 16 1009.8 1009.7 0.4
16/01:30am 25.5 26.3 23.2 87 1.6 WNW 24 28 13 15 1010.1 1010.0 0.4
16/01:00am 25.8 26.8 23.5 87 1.6 NW 24 28 13 15 1010.5 1010.4 0.4
16/12:30am 25.8 26.2 23.1 85 1.8 NW 26 28 14 15 1011.0 1010.9 0.4
16/12:00am 25.9 27.5 23.8 88 1.4 NW 22 26 12 14 1011.2 1011.1 0.4
 
Date/Time
EST
Temp
°C
App
Temp
°C
Dew
Point
°C
Rel
Hum
%
Delta-T
°C
Wind Press
QNH
hPa
Press
MSL
hPa
Rain since
9am
mm
Dir  Spd
km/h
Gust
km/h
Spd
kts
Gust
kts
15/11:30pm 25.8 28.1 23.5 87 1.6 NW 17 19 9 10 1012.1 1012.0 0.4
15/11:00pm 25.9 30.3 23.4 86 1.7 ESE 6 9 3 5 1012.9 1012.8 0.4
15/10:30pm 26.2 28.8 23.9 87 1.6 SSE 17 19 9 10 1013.3 1013.2 0.4
15/10:00pm 26.3 28.0 24.0 87 1.6 SSE 22 28 12 15 1013.6 1013.5 0.4
15/09:30pm 26.2 29.1 23.1 83 2.1 SE 13 15 7 8 1012.6 1012.5 0.4
15/09:00pm 25.9 28.3 24.3 91 1.1 SE 19 20 10 11 1012.3 1012.2 0.4
15/08:30pm 26.0 29.5 24.8 93 0.8 ESE 15 19 8 10 1011.9 1011.8 0.4
15/08:00pm 26.1 28.6 24.7 92 1.0 ESE 20 24 11 13 1011.7 1011.6 0.2
15/07:30pm 26.4 29.6 24.4 89 1.4 E 15 19 8 10 1011.9 1011.8 0.2
15/07:00pm 26.6 29.3 24.1 86 1.7 N 17 20 9 11 1011.1 1011.0 0.2
15/06:30pm 26.7 29.3 24.0 85 1.9 N 17 17 9 9 1010.2 1010.1 0.2
15/06:00pm 26.7 28.4 24.0 85 1.9 N 22 30 12 16 1009.0 1008.9 0.2
15/05:30pm 26.9 28.2 24.0 84 2.0 N 24 28 13 15 1008.4 1008.3 0.2
15/05:00pm 27.3 29.0 24.0 82 2.3 N 22 24 12 13 1007.9 1007.8 0.2
15/04:30pm 27.4 29.0 23.8 81 2.5 N 22 26 12 14 1007.8 1007.7 0.2
15/04:00pm 27.5 28.6 23.7 80 2.6 N 24 28 13 15 1008.0 1007.9 0.2
15/03:30pm 27.8 28.6 23.8 79 2.8 N 26 30 14 16 1008.3 1008.2 0.2
15/03:00pm 27.5 27.0 23.5 79 2.7 N 32 33 17 18 1008.4 1008.3 0.2
15/02:30pm 28.0 28.2 23.4 76 3.2 N 28 32 15 17 1008.7 1008.6 0.2
15/02:00pm 28.7 28.9 23.4 73 3.6 N 28 30 15 16 1009.1 1009.0 0.2
15/01:30pm 29.1 30.6 23.1 70 4.1 N 20 26 11 14 1009.7 1009.6 0.2
15/01:00pm 30.1 31.3 22.5 63 5.2 N 20 22 11 12 1009.9 1009.8 0.2
15/12:30pm 30.0 31.2 22.2 63 5.3 N 19 20 10 11 1010.4 1010.3 0.2
15/12:00pm 30.5 33.5 22.7 63 5.3 N 11 13 6 7 1011.0 1010.9 0.2
15/11:30am 28.9 30.2 20.9 62 5.3 NW 15 17 8 9 1011.6 1011.5 0.2
15/11:00am 29.5 31.1 21.4 61 5.4 NW 15 17 8 9 1011.9 1011.8 0.0
15/10:30am 27.5 30.1 22.7 75 3.3 W 13 17 7 9 1012.4 1012.3 0.0
15/10:00am 26.6 28.6 20.7 70 3.9 NW 11 13 6 7 1012.5 1012.4 0.0
15/09:30am 26.7 28.7 21.5 73 3.5 WNW 13 15 7 8 1013.2 1013.1 0.0
15/09:00am 26.9 29.3 21.6 72 3.5 W 11 13 6 7 1013.4 1013.3 0.2
15/08:30am 25.8 28.2 21.5 77 2.9 SW 11 13 6 7 1013.2 1013.1 0.2
15/08:00am 25.3 27.4 21.0 77 2.8 SSW 11 13 6 7 1013.0 1012.9 0.2
15/07:30am 25.2 26.9 21.7 81 2.3 S 15 17 8 9 1012.5 1012.4 0.2
15/07:00am 25.8 28.1 22.1 80 2.5 S 13 15 7 8 1012.6 1012.5 0.0
15/06:30am 25.9 28.7 23.0 84 2.0 S 13 15 7 8 1012.0 1011.9 0.0
15/06:00am 25.9 28.4 22.4 81 2.4 S 13 13 7 7 1011.5 1011.4 0.0
15/05:30am 25.8 28.8 22.7 83 2.1 SSW 11 13 6 7 1011.0 1010.9 0.0
15/05:00am 25.9 29.6 22.6 82 2.2 ESE 7 9 4 5 1010.5 1010.4 0.0
15/04:30am 26.0 29.7 22.5 81 2.4 SE 7 9 4 5 1010.4 1010.3 0.0
15/04:00am 25.8 29.5 22.3 81 2.4 ESE 6 7 3 4 1010.3 1010.2 0.0
15/03:30am 25.8 28.7 22.5 82 2.2 SSE 11 15 6 8 1010.1 1010.0 0.0
15/03:00am 25.9 29.4 23.6 87 1.6 SSE 11 13 6 7 1010.4 1010.3 0.0
15/02:30am 25.9 30.1 23.4 86 1.7 W 7 9 4 5 1010.6 1010.5 0.0
15/02:00am 25.7 31.1 23.2 86 1.7 CALM 0 0 0 0 1010.7 1010.6 0.0
15/01:30am 25.8 31.0 22.9 84 2.0 CALM 0 0 0 0 1010.9 1010.8 0.0
15/01:00am 26.1 31.4 23.0 83 2.1 CALM 0 0 0 0 1010.9 1010.8 0.0
15/12:30am 26.4 30.8 23.5 84 2.0 W 6 9 3 5 1011.3 1011.2 0.0
15/12:00am 26.2 29.7 22.9 82 2.2 WSW 9 9 5 5 1011.3 1011.2 0.0
 
Date/Time
EST
Temp
°C
App
Temp
°C
Dew
Point
°C
Rel
Hum
%
Delta-T
°C
Wind Press
QNH
hPa
Press
MSL
hPa
Rain since
9am
mm
Dir  Spd
km/h
Gust
km/h
Spd
kts
Gust
kts
14/11:30pm 26.2 29.3 22.9 82 2.2 NNE 11 11 6 6 1011.2 1011.1 0.0
14/11:00pm 26.3 29.5 23.0 82 2.2 NNE 11 13 6 7 1011.5 1011.4 0.0
14/10:30pm 26.4 29.6 23.1 82 2.2 N 11 11 6 6 1011.4 1011.3 0.0
14/10:00pm 26.4 29.6 23.1 82 2.2 N 11 13 6 7 1011.1 1011.0 0.0
14/09:30pm 26.2 29.1 23.1 83 2.1 N 13 15 7 8 1011.1 1011.0 0.0
14/09:00pm 26.2 29.7 22.9 82 2.2 N 9 13 5 7 1010.8 1010.7 0.0
14/08:30pm 26.4 29.1 22.9 81 2.4 N 13 15 7 8 1010.4 1010.3 0.0
14/08:00pm 26.6 29.1 23.1 81 2.4 N 15 17 8 9 1010.3 1010.2 0.0
14/07:30pm 26.5 28.8 22.8 80 2.5 N 15 19 8 10 1009.6 1009.5 0.0
14/07:00pm 26.7 29.4 22.8 79 2.6 N 13 15 7 8 1008.9 1008.8 0.0
14/06:30pm 26.8 28.9 22.4 77 3.0 N 15 17 8 9 1008.5 1008.4 0.0
14/06:00pm 27.2 29.0 21.9 73 3.6 N 15 19 8 10 1008.4 1008.3 0.0
14/05:30pm 28.1 31.3 22.3 70 3.9 N 9 13 5 7 1008.3 1008.2 0.0
14/05:00pm 28.9 30.6 22.4 68 4.4 NNE 17 19 9 10 1007.9 1007.8 0.0
14/04:30pm 29.0 30.8 22.5 68 4.4 NNE 17 20 9 11 1008.3 1008.2 0.0
14/04:00pm 30.3 31.6 22.7 64 5.2 NNE 20 22 11 12 1008.3 1008.2 0.0
14/03:30pm 31.9 33.8 23.4 60 5.9 NNE 19 22 10 12 1008.3 1008.2 0.0
14/03:00pm 32.1 33.0 23.3 59 6.1 NNE 24 26 13 14 1008.4 1008.3 0.0
14/02:30pm 32.2 33.1 23.4 59 6.1 NNE 24 28 13 15 1008.5 1008.4 0.0
14/02:00pm 32.4 32.2 23.4 59 6.2 NNE 30 33 16 18 1008.7 1008.6 0.0
14/01:30pm 33.5 33.9 23.2 54 7.1 NNE 26 30 14 16 1009.1 1009.0 0.0
14/01:00pm 32.9 34.1 23.2 56 6.7 NNE 22 26 12 14 1009.4 1009.3 0.0
14/12:30pm 30.9 32.3 22.5 61 5.7 N 19 20 10 11 1009.7 1009.6 0.0
14/12:00pm 31.4 33.0 23.2 61 5.7 N 20 22 11 12 1010.0 1009.9 0.0
14/11:30am 31.6 33.4 22.6 59 6.2 N 17 20 9 11 1010.3 1010.2 0.0
14/11:00am 30.4 33.6 23.1 65 5.0 NNW 11 15 6 8 1010.8 1010.7 0.0
14/10:30am 30.5 33.2 22.9 64 5.2 N 13 15 7 8 1010.9 1010.8 0.0
14/10:00am 29.6 32.9 22.6 66 4.8 NW 9 11 5 6 1011.1 1011.0 0.0
14/09:30am 29.7 33.1 23.4 69 4.3 NW 11 13 6 7 1011.3 1011.2 0.0
14/09:00am 27.9 31.5 23.1 75 3.3 WNW 9 9 5 5 1011.3 1011.2 0.0
14/08:30am 27.6 31.3 23.2 77 3.0 WNW 9 11 5 6 1011.1 1011.0 0.0
14/08:00am 26.4 29.9 23.5 84 2.0 W 11 13 6 7 1011.0 1010.9 0.0
14/07:30am 25.4 28.3 23.1 87 1.6 W 13 15 7 8 1010.5 1010.4 0.0
14/07:00am 25.0 27.4 22.9 88 1.4 W 15 17 8 9 1010.1 1010.0 0.0
14/06:30am 25.0 28.0 23.4 91 1.1 WSW 13 17 7 9 1009.8 1009.7 0.0
14/06:00am 25.1 28.7 23.7 92 1.0 SW 11 13 6 7 1009.4 1009.3 0.0
14/05:30am 25.1 28.8 23.3 90 1.2 SW 9 11 5 6 1008.9 1008.8 0.0
14/05:00am 25.0 28.5 22.9 88 1.4 SSW 9 11 5 6 1008.5 1008.4 0.0
14/04:30am 24.9 28.0 22.8 88 1.4 SW 11 13 6 7 1008.4 1008.3 0.0
14/04:00am 24.7 27.7 22.6 88 1.4 SW 11 13 6 7 1008.2 1008.1 0.0
14/03:30am 24.8 28.4 23.0 90 1.2 SW 9 11 5 6 1008.1 1008.0 0.0
14/03:00am 24.9 27.7 23.0 89 1.3 W 13 13 7 7 1008.0 1007.9 0.0
14/02:30am 25.0 28.5 22.9 88 1.4 W 9 11 5 6 1008.2 1008.1 0.0
14/02:00am 25.2 28.3 22.9 87 1.6 WNW 11 11 6 6 1008.3 1008.2 0.0
14/01:30am 25.3 28.2 23.2 88 1.4 WNW 13 15 7 8 1008.4 1008.3 0.0
14/01:00am 25.5 28.4 23.2 87 1.6 WNW 13 17 7 9 1008.6 1008.5 0.0
14/12:30am 25.9 29.0 23.6 87 1.6 WNW 13 15 7 8 1008.8 1008.7 0.0
14/12:00am 25.8 29.3 23.5 87 1.6 WNW 11 13 6 7 1009.0 1008.9 0.0
 
Date/Time
EST
Temp
°C
App
Temp
°C
Dew
Point
°C
Rel
Hum
%
Delta-T
°C
Wind Press
QNH
hPa
Press
MSL
hPa
Rain since
9am
mm
Dir  Spd
km/h
Gust
km/h
Spd
kts
Gust
kts
13/11:30pm 25.3 28.3 22.6 85 1.8 NNW 11 13 6 7 1009.3 1009.2 0.0
13/11:00pm 25.3 28.2 22.4 84 1.9 NNW 11 13 6 7 1009.7 1009.6 0.0
13/10:30pm 25.4 28.7 22.5 84 1.9 NNW 9 11 5 6 1010.0 1009.9 0.0
13/10:00pm 25.3 28.7 22.0 82 2.2 N 7 9 4 5 1010.1 1010.0 0.0
13/09:30pm 25.5 30.2 22.0 81 2.3 CALM 0 7 0 4 1010.0 1009.9 0.0
13/09:00pm 25.6 29.5 21.9 80 2.5 N 4 7 2 4 1009.9 1009.8 0.0
13/08:30pm 25.8 29.3 22.1 80 2.5 N 7 9 4 5 1009.7 1009.6 0.0
13/08:00pm 25.9 28.9 22.0 79 2.6 N 9 11 5 6 1009.5 1009.4 0.0

Other formats

Comma delimited format used in spreadsheet applications
http://www.bom.gov.au/fwo/IDQ60801/IDQ60801.94285.axf

JavaScript Object Notation format (JSON) in row-major order
http://www.bom.gov.au/fwo/IDQ60801/IDQ60801.94285.json

Data quality

Most of these data are generated automatically and are frequently updated. Quality checks on data are not normally performed. It is possible for incorrect values to appear. Refer to information at About Latest Weather Observations and please check the disclaimer before using these data.